SVMC/MAR METAR and TAF weather

Enter ICAO airport designator
Station Type Date Time Source
SVMC METAR 2021/04/12 05:02 UTC NOAA

SVMC 120502Z AUTO 00006KT NCD 26/23 Q1009


Station Type Date Time Source
SVMC Decoded METAR 2021/04/12 05:02 UTC NOAA

Maracaibo-La Chinita, Venezuela (SVMC) 10-34N 071-44W 65M
Apr 12, 2021 - 01:02 AM EDT / 2021.04.12 0502 UTC
Wind: from the N (000 degrees) at 7 MPH (6 KT):0
Temperature: 78 F (26 C)
Dew Point: 73 F (23 C)
Relative Humidity: 83%
Pressure (altimeter): 29.80 in. Hg (1009 hPa)
ob: SVMC 120502Z AUTO 00006KT NCD 26/23 Q1009
cycle: 5

Station Type Date Time Source
SVMC TAF 2021/04/13 06:03 UTC NOAA

TAF SVMC 130400Z 1306/1406 34005KT 9000 DZ SCT013 TX32/1319Z TN24/1308Z
TEMPO 1306/1310 09006KT 9000 DZ BKN010

Example: see airport list